Rechercher aéroport 
image banner adimage banner ad
image banner ad

FYVICT - Victory Airstrip

Situé à , Namibia

ICAO - , IATA -

Données fournies par Airmate  

Information générale

Coordonnées: S23°58'11" E18°16'9"
Élévation : 4048 feet MSL.
 
Voir autres Aéroports à Hardap

Données opérationnelles

Accessible au public
Heure actuelle UTC:
Heure actuelle locale:
Météo à : FYML - Mariental ( 79 km )
METAR: FYML 211300Z AUTO 11005G16KT //// // ////// 36/09 Q1016
Voir NOTAMs / SUP AIP / TFR affectant cet aéroport [VIEW]
Fréquences de communication: [VIEW]

Pistes:

Coordonnées de l'aéroport

Adresse: Namibia

Vue satellite de FYVICT